sensor_id;sensor_type;location;lat;lon;timestamp;pressure;altitude;pressure_sealevel;temperature
63689;BMP280;54895;40.928;14.480;2023-06-24T00:00:43;101255.38;;;30.32
63689;BMP280;54895;40.928;14.480;2023-06-24T00:03:09;101243.13;;;30.11
63689;BMP280;54895;40.928;14.480;2023-06-24T00:05:38;101243.31;;;30.17
63689;BMP280;54895;40.928;14.480;2023-06-24T00:08:05;101247.78;;;30.30
63689;BMP280;54895;40.928;14.480;2023-06-24T00:10:32;101245.91;;;30.37
63689;BMP280;54895;40.928;14.480;2023-06-24T00:12:59;101249.75;;;30.51
63689;BMP280;54895;40.928;14.480;2023-06-24T00:15:27;101246.94;;;30.49
63689;BMP280;54895;40.928;14.480;2023-06-24T00:17:53;101244.66;;;30.16
63689;BMP280;54895;40.928;14.480;2023-06-24T00:20:19;101242.53;;;30.15
63689;BMP280;54895;40.928;14.480;2023-06-24T00:22:46;101243.13;;;30.11
63689;BMP280;54895;40.928;14.480;2023-06-24T00:25:14;101246.41;;;30.29
63689;BMP280;54895;40.928;14.480;2023-06-24T00:27:41;101237.41;;;30.27
63689;BMP280;54895;40.928;14.480;2023-06-24T00:30:09;101233.03;;;30.43
63689;BMP280;54895;40.928;14.480;2023-06-24T00:32:35;101221.47;;;30.47
63689;BMP280;54895;40.928;14.480;2023-06-24T00:35:02;101219.94;;;30.42
63689;BMP280;54895;40.928;14.480;2023-06-24T00:37:28;101229.44;;;30.37
63689;BMP280;54895;40.928;14.480;2023-06-24T00:39:54;101222.56;;;30.63
63689;BMP280;54895;40.928;14.480;2023-06-24T00:42:21;101219.81;;;30.63
63689;BMP280;54895;40.928;14.480;2023-06-24T00:44:48;101216.28;;;30.58
63689;BMP280;54895;40.928;14.480;2023-06-24T00:47:15;101216.44;;;30.39
63689;BMP280;54895;40.928;14.480;2023-06-24T00:49:41;101210.00;;;30.54
63689;BMP280;54895;40.928;14.480;2023-06-24T00:52:12;101203.19;;;30.32
63689;BMP280;54895;40.928;14.480;2023-06-24T00:57:44;101197.59;;;30.02
63689;BMP280;54895;40.928;14.480;2023-06-24T01:00:11;101195.47;;;30.24
63689;BMP280;54895;40.928;14.480;2023-06-24T01:02:43;101207.09;;;30.48
63689;BMP280;54895;40.928;14.480;2023-06-24T01:05:10;101199.88;;;30.35
63689;BMP280;54895;40.928;14.480;2023-06-24T01:07:38;101199.50;;;30.47
63689;BMP280;54895;40.928;14.480;2023-06-24T01:10:05;101193.53;;;30.54
63689;BMP280;54895;40.928;14.480;2023-06-24T01:12:36;101187.81;;;30.46
63689;BMP280;54895;40.928;14.480;2023-06-24T01:15:06;101184.59;;;30.28
63689;BMP280;54895;40.928;14.480;2023-06-24T01:17:47;101185.13;;;30.48
63689;BMP280;54895;40.928;14.480;2023-06-24T01:20:25;101189.09;;;30.43
63689;BMP280;54895;40.928;14.480;2023-06-24T01:23:00;101192.50;;;30.69
63689;BMP280;54895;40.928;14.480;2023-06-24T01:36:37;101180.06;;;30.13
63689;BMP280;54895;40.928;14.480;2023-06-24T01:39:08;101173.03;;;30.59
63689;BMP280;54895;40.928;14.480;2023-06-24T01:41:44;101165.91;;;30.50
63689;BMP280;54895;40.928;14.480;2023-06-24T01:44:14;101166.38;;;30.41
63689;BMP280;54895;40.928;14.480;2023-06-24T01:46:44;101168.47;;;30.42
63689;BMP280;54895;40.928;14.480;2023-06-24T01:49:14;101165.91;;;30.23
63689;BMP280;54895;40.928;14.480;2023-06-24T01:51:44;101173.88;;;29.43
63689;BMP280;54895;40.928;14.480;2023-06-24T01:57:18;101171.53;;;30.03
63689;BMP280;54895;40.928;14.480;2023-06-24T01:59:46;101174.22;;;30.52
63689;BMP280;54895;40.928;14.480;2023-06-24T02:02:14;101172.97;;;30.04
63689;BMP280;54895;40.928;14.480;2023-06-24T02:04:41;101175.28;;;29.90
63689;BMP280;54895;40.928;14.480;2023-06-24T02:07:10;101168.75;;;29.78
63689;BMP280;54895;40.928;14.480;2023-06-24T02:09:38;101179.72;;;30.01
63689;BMP280;54895;40.928;14.480;2023-06-24T02:12:06;101165.25;;;29.52
63689;BMP280;54895;40.928;14.480;2023-06-24T02:14:34;101170.97;;;29.83
63689;BMP280;54895;40.928;14.480;2023-06-24T02:17:05;101163.03;;;29.47
63689;BMP280;54895;40.928;14.480;2023-06-24T02:19:35;101156.75;;;29.65
63689;BMP280;54895;40.928;14.480;2023-06-24T02:22:02;101161.53;;;29.88
63689;BMP280;54895;40.928;14.480;2023-06-24T02:24:31;101163.25;;;30.01
63689;BMP280;54895;40.928;14.480;2023-06-24T02:26:58;101147.97;;;29.94
63689;BMP280;54895;40.928;14.480;2023-06-24T02:29:26;101149.19;;;29.89
63689;BMP280;54895;40.928;14.480;2023-06-24T02:31:54;101147.50;;;30.02
63689;BMP280;54895;40.928;14.480;2023-06-24T02:34:23;101155.50;;;29.94
63689;BMP280;54895;40.928;14.480;2023-06-24T02:36:50;101158.50;;;29.78
63689;BMP280;54895;40.928;14.480;2023-06-24T02:39:18;101148.88;;;29.77
63689;BMP280;54895;40.928;14.480;2023-06-24T02:41:45;101148.28;;;30.06
63689;BMP280;54895;40.928;14.480;2023-06-24T02:44:13;101141.78;;;29.94
63689;BMP280;54895;40.928;14.480;2023-06-24T02:46:42;101138.44;;;29.97
63689;BMP280;54895;40.928;14.480;2023-06-24T02:49:10;101142.59;;;29.98
63689;BMP280;54895;40.928;14.480;2023-06-24T02:51:39;101145.69;;;30.36
63689;BMP280;54895;40.928;14.480;2023-06-24T02:54:06;101130.63;;;29.88
63689;BMP280;54895;40.928;14.480;2023-06-24T02:56:53;101135.47;;;29.89
63689;BMP280;54895;40.928;14.480;2023-06-24T02:59:29;101132.91;;;29.95
63689;BMP280;54895;40.928;14.480;2023-06-24T03:01:59;101129.19;;;29.61
63689;BMP280;54895;40.928;14.480;2023-06-24T03:04:26;101128.22;;;29.30
63689;BMP280;54895;40.928;14.480;2023-06-24T03:06:54;101138.06;;;29.37
63689;BMP280;54895;40.928;14.480;2023-06-24T03:09:21;101142.16;;;29.59
63689;BMP280;54895;40.928;14.480;2023-06-24T03:11:50;101129.44;;;29.95
63689;BMP280;54895;40.928;14.480;2023-06-24T03:14:25;101129.53;;;29.97
63689;BMP280;54895;40.928;14.480;2023-06-24T03:16:53;101136.34;;;29.70
63689;BMP280;54895;40.928;14.480;2023-06-24T03:19:22;101137.47;;;29.63
63689;BMP280;54895;40.928;14.480;2023-06-24T03:21:50;101140.16;;;29.85
63689;BMP280;54895;40.928;14.480;2023-06-24T03:24:17;101134.94;;;29.95
63689;BMP280;54895;40.928;14.480;2023-06-24T03:26:48;101138.75;;;30.07
63689;BMP280;54895;40.928;14.480;2023-06-24T03:29:23;101134.88;;;29.67
63689;BMP280;54895;40.928;14.480;2023-06-24T03:32:10;101143.09;;;29.67
63689;BMP280;54895;40.928;14.480;2023-06-24T03:34:37;101139.63;;;29.44
63689;BMP280;54895;40.928;14.480;2023-06-24T03:37:04;101147.38;;;29.49
63689;BMP280;54895;40.928;14.480;2023-06-24T03:39:32;101139.59;;;29.65
63689;BMP280;54895;40.928;14.480;2023-06-24T03:41:58;101147.31;;;29.70
63689;BMP280;54895;40.928;14.480;2023-06-24T03:44:26;101153.91;;;29.63
63689;BMP280;54895;40.928;14.480;2023-06-24T03:46:52;101154.75;;;29.68
63689;BMP280;54895;40.928;14.480;2023-06-24T03:49:19;101147.88;;;29.67
63689;BMP280;54895;40.928;14.480;2023-06-24T03:51:48;101148.13;;;29.52
63689;BMP280;54895;40.928;14.480;2023-06-24T03:58:34;101149.91;;;29.43
63689;BMP280;54895;40.928;14.480;2023-06-24T04:01:02;101153.59;;;29.52
63689;BMP280;54895;40.928;14.480;2023-06-24T04:03:28;101156.34;;;30.00
63689;BMP280;54895;40.928;14.480;2023-06-24T04:05:55;101154.41;;;30.30
63689;BMP280;54895;40.928;14.480;2023-06-24T04:08:22;101149.38;;;29.95
63689;BMP280;54895;40.928;14.480;2023-06-24T04:10:51;101158.25;;;29.94
63689;BMP280;54895;40.928;14.480;2023-06-24T04:13:17;101163.38;;;29.82
63689;BMP280;54895;40.928;14.480;2023-06-24T04:15:45;101155.16;;;29.58
63689;BMP280;54895;40.928;14.480;2023-06-24T04:18:11;101152.78;;;29.70
63689;BMP280;54895;40.928;14.480;2023-06-24T04:20:38;101158.31;;;30.21
63689;BMP280;54895;40.928;14.480;2023-06-24T04:23:05;101154.94;;;30.23
63689;BMP280;54895;40.928;14.480;2023-06-24T04:25:31;101146.13;;;30.28
63689;BMP280;54895;40.928;14.480;2023-06-24T04:27:58;101154.13;;;30.18
63689;BMP280;54895;40.928;14.480;2023-06-24T04:30:24;101156.50;;;30.30
63689;BMP280;54895;40.928;14.480;2023-06-24T04:32:51;101152.75;;;30.19
63689;BMP280;54895;40.928;14.480;2023-06-24T04:35:17;101161.28;;;30.29
63689;BMP280;54895;40.928;14.480;2023-06-24T04:37:43;101171.13;;;30.38
63689;BMP280;54895;40.928;14.480;2023-06-24T04:40:10;101168.47;;;30.42
63689;BMP280;54895;40.928;14.480;2023-06-24T04:42:36;101159.13;;;30.26
63689;BMP280;54895;40.928;14.480;2023-06-24T04:45:03;101158.31;;;30.21
63689;BMP280;54895;40.928;14.480;2023-06-24T04:47:31;101147.59;;;30.31
63689;BMP280;54895;40.928;14.480;2023-06-24T04:49:57;101157.13;;;30.28
63689;BMP280;54895;40.928;14.480;2023-06-24T04:52:23;101151.81;;;30.09
63689;BMP280;54895;40.928;14.480;2023-06-24T04:54:50;101157.19;;;30.05
63689;BMP280;54895;40.928;14.480;2023-06-24T05:00:37;101161.59;;;30.41
63689;BMP280;54895;40.928;14.480;2023-06-24T05:03:03;101168.72;;;30.25
63689;BMP280;54895;40.928;14.480;2023-06-24T05:05:29;101173.41;;;30.48
63689;BMP280;54895;40.928;14.480;2023-06-24T05:07:56;101170.78;;;30.26
63689;BMP280;54895;40.928;14.480;2023-06-24T05:10:22;101177.41;;;30.68
63689;BMP280;54895;40.928;14.480;2023-06-24T05:12:48;101175.84;;;30.10
63689;BMP280;54895;40.928;14.480;2023-06-24T05:15:15;101179.84;;;30.05
63689;BMP280;54895;40.928;14.480;2023-06-24T05:17:42;101185.16;;;30.50
63689;BMP280;54895;40.928;14.480;2023-06-24T05:20:08;101178.75;;;30.67
63689;BMP280;54895;40.928;14.480;2023-06-24T05:22:35;101184.25;;;31.26
63689;BMP280;54895;40.928;14.480;2023-06-24T05:25:02;101184.09;;;31.20
63689;BMP280;54895;40.928;14.480;2023-06-24T05:27:28;101194.88;;;31.10
63689;BMP280;54895;40.928;14.480;2023-06-24T05:29:54;101192.09;;;31.70
63689;BMP280;54895;40.928;14.480;2023-06-24T05:32:21;101203.44;;;31.53
63689;BMP280;54895;40.928;14.480;2023-06-24T05:34:47;101213.94;;;31.62
63689;BMP280;54895;40.928;14.480;2023-06-24T05:37:13;101206.91;;;31.89
63689;BMP280;54895;40.928;14.480;2023-06-24T05:39:41;101216.81;;;31.68
63689;BMP280;54895;40.928;14.480;2023-06-24T05:42:07;101209.09;;;31.96
63689;BMP280;54895;40.928;14.480;2023-06-24T05:44:34;101198.50;;;31.48
63689;BMP280;54895;40.928;14.480;2023-06-24T05:47:00;101211.03;;;31.88
63689;BMP280;54895;40.928;14.480;2023-06-24T05:49:27;101211.88;;;31.96
63689;BMP280;54895;40.928;14.480;2023-06-24T05:51:53;101214.22;;;31.76
63689;BMP280;54895;40.928;14.480;2023-06-24T05:54:19;101217.88;;;32.20
63689;BMP280;54895;40.928;14.480;2023-06-24T06:00:17;101236.19;;;32.84
63689;BMP280;54895;40.928;14.480;2023-06-24T06:02:44;101234.56;;;33.13
63689;BMP280;54895;40.928;14.480;2023-06-24T06:05:10;101247.34;;;33.39
63689;BMP280;54895;40.928;14.480;2023-06-24T06:07:36;101242.06;;;33.55
63689;BMP280;54895;40.928;14.480;2023-06-24T06:10:06;101239.56;;;33.73
63689;BMP280;54895;40.928;14.480;2023-06-24T06:12:32;101241.47;;;33.65
63689;BMP280;54895;40.928;14.480;2023-06-24T06:14:58;101243.44;;;33.56
63689;BMP280;54895;40.928;14.480;2023-06-24T06:17:25;101240.88;;;33.70
63689;BMP280;54895;40.928;14.480;2023-06-24T06:19:51;101234.22;;;33.91
63689;BMP280;54895;40.928;14.480;2023-06-24T06:22:17;101248.38;;;34.25
63689;BMP280;54895;40.928;14.480;2023-06-24T06:24:44;101248.59;;;34.47
63689;BMP280;54895;40.928;14.480;2023-06-24T06:27:10;101259.28;;;34.86
63689;BMP280;54895;40.928;14.480;2023-06-24T06:29:37;101269.84;;;35.13
63689;BMP280;54895;40.928;14.480;2023-06-24T06:32:04;101258.09;;;35.19
63689;BMP280;54895;40.928;14.480;2023-06-24T06:34:30;101263.34;;;34.73
63689;BMP280;54895;40.928;14.480;2023-06-24T06:36:56;101266.78;;;34.76
63689;BMP280;54895;40.928;14.480;2023-06-24T06:39:23;101273.19;;;34.96
63689;BMP280;54895;40.928;14.480;2023-06-24T06:41:49;101278.25;;;35.37
63689;BMP280;54895;40.928;14.480;2023-06-24T06:44:16;101285.38;;;35.74
63689;BMP280;54895;40.928;14.480;2023-06-24T06:46:42;101290.31;;;36.23
63689;BMP280;54895;40.928;14.480;2023-06-24T06:49:08;101280.66;;;36.38
63689;BMP280;54895;40.928;14.480;2023-06-24T06:51:35;101286.91;;;36.41
63689;BMP280;54895;40.928;14.480;2023-06-24T06:54:01;101291.03;;;36.57
63689;BMP280;54895;40.928;14.480;2023-06-24T06:56:28;101288.94;;;36.22
63689;BMP280;54895;40.928;14.480;2023-06-24T06:58:54;101293.81;;;36.57
63689;BMP280;54895;40.928;14.480;2023-06-24T07:01:20;101297.91;;;37.08
63689;BMP280;54895;40.928;14.480;2023-06-24T07:03:49;101284.09;;;36.62
63689;BMP280;54895;40.928;14.480;2023-06-24T07:06:18;101289.63;;;36.17
63689;BMP280;54895;40.928;14.480;2023-06-24T07:08:44;101279.94;;;36.24
63689;BMP280;54895;40.928;14.480;2023-06-24T07:11:11;101268.81;;;36.08
63689;BMP280;54895;40.928;14.480;2023-06-24T07:13:37;101266.75;;;36.06
63689;BMP280;54895;40.928;14.480;2023-06-24T07:16:03;101259.09;;;36.05
63689;BMP280;54895;40.928;14.480;2023-06-24T07:18:30;101273.00;;;36.17
63689;BMP280;54895;40.928;14.480;2023-06-24T07:20:56;101268.75;;;35.80
63689;BMP280;54895;40.928;14.480;2023-06-24T07:23:23;101268.72;;;35.60
63689;BMP280;54895;40.928;14.480;2023-06-24T07:25:50;101279.88;;;35.96
63689;BMP280;54895;40.928;14.480;2023-06-24T07:28:16;101268.75;;;35.72
63689;BMP280;54895;40.928;14.480;2023-06-24T07:30:42;101276.44;;;36.99
63689;BMP280;54895;40.928;14.480;2023-06-24T07:33:09;101269.41;;;37.31
63689;BMP280;54895;40.928;14.480;2023-06-24T07:35:35;101274.19;;;37.51
63689;BMP280;54895;40.928;14.480;2023-06-24T07:38:02;101263.22;;;37.19
63689;BMP280;54895;40.928;14.480;2023-06-24T07:40:28;101266.09;;;36.79
63689;BMP280;54895;40.928;14.480;2023-06-24T07:42:54;101265.34;;;37.01
63689;BMP280;54895;40.928;14.480;2023-06-24T07:45:20;101259.19;;;36.23
63689;BMP280;54895;40.928;14.480;2023-06-24T07:47:47;101253.59;;;36.64
63689;BMP280;54895;40.928;14.480;2023-06-24T07:50:13;101250.84;;;36.56
63689;BMP280;54895;40.928;14.480;2023-06-24T07:52:39;101256.38;;;36.74
63689;BMP280;54895;40.928;14.480;2023-06-24T07:55:06;101246.69;;;36.45
63689;BMP280;54895;40.928;14.480;2023-06-24T08:00:25;101254.88;;;37.17
63689;BMP280;54895;40.928;14.480;2023-06-24T08:02:51;101254.88;;;37.17
63689;BMP280;54895;40.928;14.480;2023-06-24T08:05:17;101256.03;;;37.68
63689;BMP280;54895;40.928;14.480;2023-06-24T08:07:44;101256.59;;;37.90
63689;BMP280;54895;40.928;14.480;2023-06-24T08:10:10;101258.69;;;37.88
63689;BMP280;54895;40.928;14.480;2023-06-24T08:12:37;101253.34;;;37.48
63689;BMP280;54895;40.928;14.480;2023-06-24T08:15:04;101248.34;;;37.76
63689;BMP280;54895;40.928;14.480;2023-06-24T08:17:31;101238.16;;;37.39
63689;BMP280;54895;40.928;14.480;2023-06-24T08:19:57;101229.94;;;37.11
63689;BMP280;54895;40.928;14.480;2023-06-24T08:22:23;101229.72;;;37.55
63689;BMP280;54895;40.928;14.480;2023-06-24T08:24:50;101237.88;;;37.81
63689;BMP280;54895;40.928;14.480;2023-06-24T08:27:16;101239.47;;;37.54
63689;BMP280;54895;40.928;14.480;2023-06-24T08:29:43;101243.72;;;37.33
63689;BMP280;54895;40.928;14.480;2023-06-24T08:32:09;101235.44;;;37.23
63689;BMP280;54895;40.928;14.480;2023-06-24T08:34:36;101239.47;;;37.48
63689;BMP280;54895;40.928;14.480;2023-06-24T08:37:02;101232.16;;;36.25
63689;BMP280;54895;40.928;14.480;2023-06-24T08:39:28;101230.59;;;37.21
63689;BMP280;54895;40.928;14.480;2023-06-24T08:41:55;101229.19;;;38.30
63689;BMP280;54895;40.928;14.480;2023-06-24T08:44:21;101226.78;;;37.85
63689;BMP280;54895;40.928;14.480;2023-06-24T08:46:48;101228.34;;;37.50
63689;BMP280;54895;40.928;14.480;2023-06-24T08:51:41;101233.09;;;38.57
63689;BMP280;54895;40.928;14.480;2023-06-24T08:54:09;101230.63;;;38.89
63689;BMP280;54895;40.928;14.480;2023-06-24T08:56:37;101223.13;;;39.34
63689;BMP280;54895;40.928;14.480;2023-06-24T09:01:56;101223.81;;;38.04
63689;BMP280;54895;40.928;14.480;2023-06-24T09:04:22;101213.66;;;38.53
63689;BMP280;54895;40.928;14.480;2023-06-24T09:06:48;101219.84;;;38.60
63689;BMP280;54895;40.928;14.480;2023-06-24T09:09:19;101218.06;;;38.32
63689;BMP280;54895;40.928;14.480;2023-06-24T09:11:59;101226.41;;;38.32
63689;BMP280;54895;40.928;14.480;2023-06-24T09:14:27;101225.31;;;38.71
63689;BMP280;54895;40.928;14.480;2023-06-24T09:16:55;101226.56;;;38.84
63689;BMP280;54895;40.928;14.480;2023-06-24T09:19:22;101226.00;;;38.70
63689;BMP280;54895;40.928;14.480;2023-06-24T09:21:50;101222.41;;;38.09
63689;BMP280;54895;40.928;14.480;2023-06-24T09:24:17;101227.03;;;37.37
63689;BMP280;54895;40.928;14.480;2023-06-24T09:26:44;101217.94;;;38.42
63689;BMP280;54895;40.928;14.480;2023-06-24T09:29:13;101219.00;;;39.31
63689;BMP280;54895;40.928;14.480;2023-06-24T09:31:47;101214.97;;;39.20
63689;BMP280;54895;40.928;14.480;2023-06-24T09:34:15;101220.06;;;39.98
63689;BMP280;54895;40.928;14.480;2023-06-24T09:36:42;101214.63;;;39.88
63689;BMP280;54895;40.928;14.480;2023-06-24T09:39:09;101214.44;;;40.00
63689;BMP280;54895;40.928;14.480;2023-06-24T09:41:36;101210.47;;;40.25
63689;BMP280;54895;40.928;14.480;2023-06-24T09:44:08;101212.63;;;38.82
63689;BMP280;54895;40.928;14.480;2023-06-24T09:46:34;101216.91;;;38.73
63689;BMP280;54895;40.928;14.480;2023-06-24T09:49:02;101208.94;;;39.00
63689;BMP280;54895;40.928;14.480;2023-06-24T09:51:29;101213.19;;;38.31
63689;BMP280;54895;40.928;14.480;2023-06-24T09:53:56;101213.47;;;38.71
63689;BMP280;54895;40.928;14.480;2023-06-24T09:56:23;101196.91;;;39.63
63689;BMP280;54895;40.928;14.480;2023-06-24T10:02:11;101195.63;;;39.54
63689;BMP280;54895;40.928;14.480;2023-06-24T10:04:38;101187.66;;;39.77
63689;BMP280;54895;40.928;14.480;2023-06-24T10:07:05;101190.47;;;40.15
63689;BMP280;54895;40.928;14.480;2023-06-24T10:09:31;101182.91;;;40.46
63689;BMP280;54895;40.928;14.480;2023-06-24T10:11:58;101193.53;;;39.57
63689;BMP280;54895;40.928;14.480;2023-06-24T10:14:24;101192.44;;;39.80
63689;BMP280;54895;40.928;14.480;2023-06-24T10:16:51;101172.84;;;38.94
63689;BMP280;54895;40.928;14.480;2023-06-24T10:19:20;101162.66;;;38.74
63689;BMP280;54895;40.928;14.480;2023-06-24T10:21:51;101182.47;;;38.45
63689;BMP280;54895;40.928;14.480;2023-06-24T10:24:32;101173.56;;;38.30
63689;BMP280;54895;40.928;14.480;2023-06-24T10:27:19;101177.81;;;38.23
63689;BMP280;54895;40.928;14.480;2023-06-24T10:29:52;101171.34;;;37.61
63689;BMP280;54895;40.928;14.480;2023-06-24T10:32:19;101163.41;;;36.87
63689;BMP280;54895;40.928;14.480;2023-06-24T10:34:53;101173.56;;;37.38
63689;BMP280;54895;40.928;14.480;2023-06-24T10:37:22;101156.81;;;37.52
63689;BMP280;54895;40.928;14.480;2023-06-24T10:39:51;101156.41;;;37.06
63689;BMP280;54895;40.928;14.480;2023-06-24T10:45:14;101142.75;;;35.95
63689;BMP280;54895;40.928;14.480;2023-06-24T10:47:51;101142.75;;;36.27
63689;BMP280;54895;40.928;14.480;2023-06-24T10:50:22;101150.94;;;36.86
63689;BMP280;54895;40.928;14.480;2023-06-24T10:52:52;101149.44;;;37.13
63689;BMP280;54895;40.928;14.480;2023-06-24T10:55:24;101139.75;;;38.06
63689;BMP280;54895;40.928;14.480;2023-06-24T10:57:51;101133.16;;;37.61
63689;BMP280;54895;40.928;14.480;2023-06-24T11:03:39;101125.53;;;37.62
63689;BMP280;54895;40.928;14.480;2023-06-24T11:06:10;101111.25;;;37.18
63689;BMP280;54895;40.928;14.480;2023-06-24T11:08:43;101122.06;;;37.59
63689;BMP280;54895;40.928;14.480;2023-06-24T11:11:18;101116.47;;;38.37
63689;BMP280;54895;40.928;14.480;2023-06-24T11:13:48;101097.63;;;39.44
63689;BMP280;54895;40.928;14.480;2023-06-24T11:16:14;101100.91;;;39.54
63689;BMP280;54895;40.928;14.480;2023-06-24T11:18:45;101104.06;;;38.28
63689;BMP280;54895;40.928;14.480;2023-06-24T11:21:12;101088.69;;;37.65
63689;BMP280;54895;40.928;14.480;2023-06-24T11:23:38;101097.03;;;37.65
63689;BMP280;54895;40.928;14.480;2023-06-24T11:26:04;101086.50;;;37.78
63689;BMP280;54895;40.928;14.480;2023-06-24T11:28:31;101089.84;;;37.94
63689;BMP280;54895;40.928;14.480;2023-06-24T11:31:06;101077.72;;;37.49
63689;BMP280;54895;40.928;14.480;2023-06-24T11:33:32;101070.06;;;37.48
63689;BMP280;54895;40.928;14.480;2023-06-24T11:35:58;101068.50;;;37.71
63689;BMP280;54895;40.928;14.480;2023-06-24T11:38:24;101071.28;;;38.93
63689;BMP280;54895;40.928;14.480;2023-06-24T11:40:58;101073.31;;;37.76
63689;BMP280;54895;40.928;14.480;2023-06-24T11:43:25;101076.72;;;38.47
63689;BMP280;54895;40.928;14.480;2023-06-24T11:45:52;101070.91;;;38.08
63689;BMP280;54895;40.928;14.480;2023-06-24T11:48:20;101073.94;;;37.87
63689;BMP280;54895;40.928;14.480;2023-06-24T11:50:53;101078.22;;;37.74
63689;BMP280;54895;40.928;14.480;2023-06-24T11:53:43;101076.84;;;37.73
63689;BMP280;54895;40.928;14.480;2023-06-24T11:56:12;101072.03;;;37.65
63689;BMP280;54895;40.928;14.480;2023-06-24T11:58:39;101070.50;;;38.44
63689;BMP280;54895;40.928;14.480;2023-06-24T12:01:31;101076.47;;;38.68
63689;BMP280;54895;40.928;14.480;2023-06-24T12:04:09;101080.66;;;38.07
63689;BMP280;54895;40.928;14.480;2023-06-24T12:06:35;101076.28;;;38.26
63689;BMP280;54895;40.928;14.480;2023-06-24T12:09:01;101082.94;;;38.51
63689;BMP280;54895;40.928;14.480;2023-06-24T12:11:28;101076.06;;;38.46
63689;BMP280;54895;40.928;14.480;2023-06-24T12:13:54;101078.59;;;38.66
63689;BMP280;54895;40.928;14.480;2023-06-24T12:16:22;101090.72;;;38.95
63689;BMP280;54895;40.928;14.480;2023-06-24T12:18:50;101085.34;;;39.69
63689;BMP280;54895;40.928;14.480;2023-06-24T12:21:17;101088.50;;;39.49
63689;BMP280;54895;40.928;14.480;2023-06-24T12:23:43;101093.25;;;39.11
63689;BMP280;54895;40.928;14.480;2023-06-24T12:26:10;101088.88;;;39.26
63689;BMP280;54895;40.928;14.480;2023-06-24T12:28:37;101089.59;;;39.66
63689;BMP280;54895;40.928;14.480;2023-06-24T12:31:03;101083.63;;;37.90
63689;BMP280;54895;40.928;14.480;2023-06-24T12:33:32;101080.50;;;38.23
63689;BMP280;54895;40.928;14.480;2023-06-24T12:35:59;101080.59;;;38.11
63689;BMP280;54895;40.928;14.480;2023-06-24T12:38:25;101083.50;;;38.62
63689;BMP280;54895;40.928;14.480;2023-06-24T12:40:51;101074.66;;;38.99
63689;BMP280;54895;40.928;14.480;2023-06-24T12:43:18;101068.41;;;37.79
63689;BMP280;54895;40.928;14.480;2023-06-24T12:45:44;101060.91;;;38.33
63689;BMP280;54895;40.928;14.480;2023-06-24T12:48:12;101049.66;;;38.45
63689;BMP280;54895;40.928;14.480;2023-06-24T12:50:39;101048.69;;;38.08
63689;BMP280;54895;40.928;14.480;2023-06-24T12:53:05;101041.41;;;38.35
63689;BMP280;54895;40.928;14.480;2023-06-24T12:55:32;101044.13;;;38.41
63689;BMP280;54895;40.928;14.480;2023-06-24T12:57:58;101040.25;;;39.19
63689;BMP280;54895;40.928;14.480;2023-06-24T13:00:25;101038.75;;;38.81
63689;BMP280;54895;40.928;14.480;2023-06-24T13:02:51;101040.25;;;39.19
63689;BMP280;54895;40.928;14.480;2023-06-24T13:05:18;101031.81;;;39.25
63689;BMP280;54895;40.928;14.480;2023-06-24T13:07:44;101040.50;;;37.94
63689;BMP280;54895;40.928;14.480;2023-06-24T13:10:10;101042.50;;;37.26
63689;BMP280;54895;40.928;14.480;2023-06-24T13:12:37;101032.78;;;37.23
63689;BMP280;54895;40.928;14.480;2023-06-24T13:15:05;101045.00;;;36.40
63689;BMP280;54895;40.928;14.480;2023-06-24T13:17:32;101045.78;;;36.03
63689;BMP280;54895;40.928;14.480;2023-06-24T13:19:58;101052.69;;;36.14
63689;BMP280;54895;40.928;14.480;2023-06-24T13:22:24;101051.31;;;35.91
63689;BMP280;54895;40.928;14.480;2023-06-24T13:24:51;101063.75;;;36.24
63689;BMP280;54895;40.928;14.480;2023-06-24T13:27:17;101066.31;;;34.71
63689;BMP280;54895;40.928;14.480;2023-06-24T13:29:43;101070.56;;;34.97
63689;BMP280;54895;40.928;14.480;2023-06-24T13:32:10;101073.91;;;34.72
63689;BMP280;54895;40.928;14.480;2023-06-24T13:34:36;101067.56;;;34.50
63689;BMP280;54895;40.928;14.480;2023-06-24T13:37:02;101076.69;;;33.79
63689;BMP280;54895;40.928;14.480;2023-06-24T13:39:29;101080.47;;;32.87
63689;BMP280;54895;40.928;14.480;2023-06-24T13:41:56;101092.75;;;33.31
63689;BMP280;54895;40.928;14.480;2023-06-24T13:44:22;101097.75;;;33.45
63689;BMP280;54895;40.928;14.480;2023-06-24T13:46:49;101097.03;;;33.46
63689;BMP280;54895;40.928;14.480;2023-06-24T13:49:16;101091.50;;;33.40
63689;BMP280;54895;40.928;14.480;2023-06-24T13:51:42;101098.22;;;33.27
63689;BMP280;54895;40.928;14.480;2023-06-24T13:54:09;101093.31;;;32.69
63689;BMP280;54895;40.928;14.480;2023-06-24T13:56:35;101101.22;;;32.92
63689;BMP280;54895;40.928;14.480;2023-06-24T13:59:01;101101.56;;;32.69
63689;BMP280;54895;40.928;14.480;2023-06-24T14:01:28;101101.22;;;32.92
63689;BMP280;54895;40.928;14.480;2023-06-24T14:03:55;101108.31;;;32.60
63689;BMP280;54895;40.928;14.480;2023-06-24T14:06:22;101118.34;;;32.39
63689;BMP280;54895;40.928;14.480;2023-06-24T14:08:50;101119.72;;;32.40
63689;BMP280;54895;40.928;14.480;2023-06-24T14:11:17;101137.53;;;31.96
63689;BMP280;54895;40.928;14.480;2023-06-24T14:13:43;101143.38;;;31.77
63689;BMP280;54895;40.928;14.480;2023-06-24T14:16:10;101170.50;;;31.26
63689;BMP280;54895;40.928;14.480;2023-06-24T14:18:37;101163.09;;;31.03
63689;BMP280;54895;40.928;14.480;2023-06-24T14:21:06;101165.44;;;31.46
63689;BMP280;54895;40.928;14.480;2023-06-24T14:23:32;101164.22;;;30.92
63689;BMP280;54895;40.928;14.480;2023-06-24T14:25:59;101152.41;;;30.85
63689;BMP280;54895;40.928;14.480;2023-06-24T14:28:25;101160.44;;;30.77
63689;BMP280;54895;40.928;14.480;2023-06-24T14:30:52;101165.22;;;30.77
63689;BMP280;54895;40.928;14.480;2023-06-24T14:33:18;101172.63;;;30.98